Date,TemperatureHighF,TemperatureAvgF,TemperatureLowF,DewpointHighF,DewpointAvgF,DewpointLowF,HumidityHigh,HumidityAvg,HumidityLow,PressureMaxIn,PressureMinIn,WindSpeedMaxMPH,WindSpeedAvgMPH,GustSpeedMaxMPH,PrecipitationSumIn
2013-1-1,47.9,33.9,30.6,34.3,26.8,24.0,84,75,56,30.45,30.34,6,1,6,0.00
2013-1-2,47.9,34.7,32.2,33.0,26.1,24.6,76,71,52,30.35,30.21,7,2,7,0.00
2013-1-5,37.4,36.3,36.0,33.1,32.4,31.2,88,86,78,30.20,30.17,2,0,2,0.01
2013-1-6,42.5,38.7,34.9,40.3,36.3,32.6,94,91,87,30.25,30.07,1,0,1,0.23
2013-1-7,51.5,47.8,41.9,48.6,45.5,40.3,94,92,88,30.22,29.98,8,1,8,0.14
2013-1-8,53.8,50.5,45.5,49.8,47.1,43.3,95,88,83,30.21,29.91,8,1,8,0.17
2013-1-9,51.3,43.5,36.4,47.2,40.1,33.9,92,88,78,29.99,29.71,6,1,6,0.30
2013-1-10,38.9,36.9,34.9,36.2,34.6,32.8,93,92,90,30.10,29.98,4,0,4,0.16
2013-1-11,52.7,34.5,29.9,44.2,31.5,27.1,93,89,69,30.31,30.10,2,0,2,0.00
2013-1-12,43.6,30.9,27.7,38.2,28.2,25.5,92,89,73,30.40,30.30,1,0,1,0.00
2013-1-13,47.2,31.4,27.5,37.6,27.5,24.5,93,86,68,30.50,30.40,2,0,2,0.00
2013-1-14,32.9,31.0,29.3,30.9,28.0,25.9,92,88,86,30.56,30.48,2,0,2,0.01
2013-1-15,37.1,35.6,33.5,35.5,33.8,31.3,94,93,92,30.66,30.63,0,0,0,0.02
2013-1-16,37.1,35.1,32.6,35.0,33.3,30.5,94,93,91,30.65,30.49,2,0,2,0.00
2013-1-17,41.2,33.5,30.1,36.2,30.7,28.3,93,89,79,30.49,30.31,4,0,4,0.01
2013-1-18,40.0,31.7,27.0,36.2,29.0,24.8,92,90,86,30.33,30.26,1,0,1,0.00
2013-1-19,40.0,31.0,25.6,37.0,28.4,23.3,93,90,86,30.34,30.27,1,0,1,0.01
2013-1-20,42.5,33.1,28.3,34.5,28.7,25.7,91,84,71,30.35,30.24,6,0,6,0.00
2013-1-21,42.5,31.4,25.6,35.3,27.1,22.5,89,84,68,30.28,30.15,3,0,3,0.00
2013-1-22,42.8,33.0,27.7,32.7,27.1,24.0,87,79,63,30.17,29.94,6,0,6,0.01
2013-1-23,37.1,34.9,33.5,32.6,29.6,25.7,90,81,71,30.21,29.90,5,0,5,0.25
2013-1-24,44.1,38.7,34.9,41.5,36.5,32.6,94,92,89,30.24,30.10,2,0,2,0.31
2013-1-25,50.6,44.6,41.0,48.7,43.0,39.4,96,94,92,30.14,29.96,4,0,4,0.22
2013-1-26,44.5,41.6,38.9,41.6,39.7,36.7,95,93,88,30.09,29.95,6,1,6,0.11
2013-1-27,42.5,40.4,39.1,39.6,38.4,37.0,94,93,90,30.15,30.05,6,1,6,0.41
2013-1-28,43.4,41.6,39.8,41.8,39.9,37.9,95,94,93,30.21,30.08,8,1,8,0.87
2013-1-29,46.3,44.5,42.7,44.7,42.9,41.0,95,94,92,30.47,30.20,10,2,10,0.69
2013-1-30,48.1,45.7,43.2,46.3,44.0,41.5,95,94,92,30.46,30.41,10,2,10,0.45
2013-1-31,51.7,47.2,43.4,48.9,45.4,42.0,96,93,89,30.45,30.33,2,0,4,0.01
2013-2-1,52.2,46.0,42.3,49.1,44.0,40.4,95,93,88,30.37,30.27,5,0,5,0.00
2013-2-2,56.7,45.0,38.2,48.6,40.9,35.5,91,86,73,30.30,30.25,4,0,4,0.00
2013-2-3,47.2,42.8,37.4,44.5,40.5,35.2,94,92,89,30.34,30.23,2,0,2,0.01
2013-2-4,52.2,45.3,40.5,46.7,42.4,38.4,94,90,79,30.24,29.95,2,0,2,0.00
2013-2-5,51.1,45.9,42.5,46.1,42.9,40.1,93,89,80,30.05,29.92,9,1,9,0.16
2013-2-6,50.6,45.5,41.2,44.6,41.8,38.6,93,87,75,30.10,29.86,7,1,7,0.11
2013-2-7,48.8,41.9,35.6,42.3,38.4,32.9,94,88,72,30.14,29.93,5,0,5,0.13
2013-2-8,43.4,37.5,34.4,39.2,34.9,32.0,93,90,85,30.29,30.14,3,0,3,0.00
2013-2-9,42.7,39.4,34.2,40.7,37.3,32.0,94,92,90,30.30,30.25,4,0,4,0.01
2013-2-10,45.7,42.7,41.4,41.5,40.0,38.4,94,90,82,30.35,30.30,2,0,2,0.00
2013-2-11,44.1,42.6,40.7,42.2,39.9,37.8,93,90,83,30.39,30.31,7,0,7,0.05
2013-2-12,53.6,48.1,44.1,48.6,45.1,42.2,94,89,80,30.47,30.38,7,1,7,0.03
2013-2-13,49.9,47.7,44.3,46.3,44.7,41.6,91,89,86,30.51,30.42,7,1,7,0.01
2013-2-14,52.9,44.6,40.0,47.0,41.3,37.7,93,88,78,30.56,30.50,2,0,2,0.00
2013-2-15,59.8,46.3,38.3,50.4,42.1,36.2,95,86,67,30.50,30.19,5,0,5,0.00
2013-2-16,49.0,43.6,39.8,46.2,41.3,37.4,94,91,88,30.28,30.20,6,0,6,0.07
2013-2-17,46.1,41.4,36.4,40.8,37.7,32.8,93,87,77,30.30,30.10,2,0,2,0.00
2013-2-18,46.8,40.4,34.6,38.4,35.7,31.8,91,84,66,30.10,29.75,6,0,6,0.00
2013-2-19,53.3,42.4,36.0,44.8,37.8,33.6,93,84,65,30.00,29.70,3,0,3,0.11
2013-2-20,47.2,41.3,35.3,41.1,37.7,32.2,91,87,76,30.09,30.00,6,0,6,0.13
2013-2-21,44.6,41.8,39.2,40.7,38.9,36.8,92,89,85,30.19,30.08,10,2,10,0.10
2013-2-22,45.4,43.4,38.2,42.8,40.2,35.4,92,88,83,30.17,29.88,11,2,11,0.35
2013-2-23,45.7,40.6,37.8,40.2,36.6,35.1,91,86,73,30.43,30.06,8,1,8,0.01
2013-2-24,50.8,42.7,36.5,40.6,36.9,33.5,90,80,62,30.43,30.05,7,1,7,0.01
2013-2-25,46.3,42.7,38.9,42.0,38.2,35.2,90,84,72,30.37,30.01,9,1,9,0.20
2013-2-26,49.0,42.4,36.9,40.2,37.4,33.9,91,83,70,30.39,30.24,5,0,5,0.00
2013-2-27,51.8,46.7,41.8,44.3,41.5,37.8,91,82,68,30.31,30.24,5,0,5,0.07
2013-2-28,54.9,51.4,45.9,52.1,48.9,43.5,94,91,89,30.44,30.20,8,1,8,0.16
2013-3-1,59.2,54.9,52.6,52.4,50.7,49.6,90,86,77,30.45,30.31,7,1,7,0.00
2013-3-2,54.9,50.3,43.4,50.1,46.7,40.4,92,88,79,30.32,30.16,5,0,5,0.09
2013-3-3,47.9,41.0,35.5,41.0,36.8,31.9,93,85,72,30.32,30.25,4,0,4,0.01
2013-3-4,55.4,41.7,31.9,38.4,33.6,29.3,92,74,46,30.25,29.91,6,0,6,0.01
2013-3-5,46.1,41.6,37.8,42.5,36.9,30.9,91,83,75,29.92,29.64,3,0,3,0.35
2013-3-6,43.6,41.8,40.0,41.5,39.6,37.5,93,92,90,29.97,29.54,10,1,10,0.49
2013-3-7,54.9,42.6,35.6,46.1,38.3,33.5,93,85,68,30.06,29.97,4,0,4,0.01
2013-3-8,56.9,42.4,33.1,45.1,36.6,30.5,92,81,57,30.21,30.03,3,0,3,0.00
2013-3-9,57.2,43.7,34.0,45.2,37.3,31.1,92,79,56,30.49,30.21,4,0,4,0.01
2013-3-10,50.0,43.8,37.1,44.1,39.1,33.0,88,83,76,30.50,30.41,2,0,2,0.00
2013-3-11,53.6,48.5,44.3,50.1,45.7,41.6,92,90,86,30.43,30.24,2,0,2,0.04
2013-3-12,59.4,52.5,48.2,52.0,48.4,44.6,94,86,73,30.24,30.15,7,1,7,0.00
2013-3-13,63.4,53.6,46.8,53.0,48.2,44.1,91,82,66,30.23,30.09,4,0,4,0.00
2013-3-14,59.4,52.8,47.9,50.1,46.7,43.1,91,80,57,30.21,30.05,8,1,8,0.00
2013-3-15,63.0,55.5,49.7,51.8,47.9,45.2,90,76,56,30.23,30.15,5,1,5,0.00
2013-3-16,50.2,47.0,40.5,46.1,43.3,37.7,91,87,83,30.17,30.01,7,1,7,0.25
2013-3-17,49.0,42.7,38.0,39.3,36.2,34.1,90,78,62,30.29,30.13,7,1,7,0.00
2013-3-18,52.2,44.0,37.8,40.7,36.8,33.7,87,76,60,30.28,30.16,7,1,7,0.00
2013-3-19,53.3,44.8,38.5,43.5,38.9,33.9,91,80,62,30.16,29.68,4,0,4,0.46
2013-3-20,52.6,48.3,41.0,50.0,42.5,34.0,93,81,65,30.16,29.54,11,2,11,0.28
2013-3-21,47.2,41.8,38.9,40.3,35.8,33.1,89,79,63,30.30,30.16,9,1,9,0.14
2013-3-22,46.4,39.4,35.1,36.9,34.2,31.5,88,82,63,30.39,30.29,5,0,5,0.11
2013-3-23,49.7,39.9,34.2,39.8,34.0,31.0,91,80,58,30.39,30.27,4,0,4,0.00
2013-3-24,54.4,44.2,35.5,38.4,34.7,30.1,86,70,50,30.27,30.09,6,1,6,0.00
2013-3-25,60.1,49.6,41.2,41.1,36.5,32.6,73,62,42,30.09,29.91,6,1,6,0.00
2013-3-26,53.3,47.4,41.0,46.1,41.4,35.6,85,80,70,30.03,29.97,3,0,3,0.00
2013-3-27,64.3,51.5,40.9,50.1,44.9,37.5,91,79,57,30.00,29.90,4,0,4,0.12
2013-3-28,64.4,53.9,45.9,53.7,47.6,43.2,91,80,58,30.13,30.00,4,0,4,0.00
2013-3-29,65.9,55.9,48.6,54.2,49.0,45.1,90,78,58,30.20,30.13,4,0,4,0.00
2013-3-30,75.2,57.6,43.6,56.1,48.1,40.2,91,73,45,30.19,29.98,4,0,4,0.00
2013-3-31,74.7,60.8,48.2,53.2,48.2,41.5,83,64,42,30.01,29.90,7,1,7,0.00
2013-4-1,63.7,57.8,53.8,52.7,50.0,47.8,82,75,66,30.17,30.00,5,1,5,0.00
2013-4-2,63.9,56.2,50.8,52.7,48.5,45.5,85,76,60,30.22,30.12,5,0,5,0.00
2013-4-3,64.8,54.2,45.4,53.9,47.9,41.4,91,80,66,30.17,29.91,4,0,4,0.00
2013-4-4,59.4,55.4,52.6,56.3,51.6,49.0,91,87,81,29.91,29.70,11,1,11,0.26
2013-4-5,58.3,53.7,49.9,51.8,49.3,47.3,91,85,73,29.96,29.82,10,2,10,0.25
2013-4-6,54.4,50.1,45.5,48.8,46.2,43.1,92,87,73,30.01,29.73,10,1,10,0.67
2013-4-7,52.0,47.5,42.8,48.1,43.1,38.8,94,85,71,29.96,29.56,11,2,11,0.27
2013-4-8,53.5,47.1,42.1,47.3,42.7,38.9,91,85,74,30.29,29.96,4,1,4,0.04
2013-4-9,57.6,49.3,41.4,47.6,43.8,38.4,91,82,65,30.37,30.24,4,0,4,0.00
2013-4-10,58.3,52.6,45.9,52.4,46.7,39.8,91,81,67,30.34,30.10,10,1,10,0.20
2013-4-11,55.1,47.4,39.8,45.2,41.2,36.2,90,79,66,30.35,30.19,5,0,5,0.00
2013-4-12,53.3,45.6,37.4,44.9,40.2,33.8,90,82,68,30.19,29.86,7,1,7,0.10
2013-4-13,51.5,44.7,38.5,43.5,37.8,34.3,91,78,59,30.09,29.91,13,1,13,0.10
2013-4-14,51.8,43.9,40.9,44.4,39.4,36.1,90,84,69,30.09,29.93,6,1,6,0.21
2013-4-15,55.1,46.1,38.5,43.2,39.7,35.8,92,79,57,30.17,29.95,4,0,4,0.02
2013-4-16,58.0,47.4,38.7,44.2,39.8,35.3,90,76,53,30.40,30.17,7,0,7,0.00
2013-4-17,59.6,47.6,36.5,44.2,39.4,32.7,88,74,50,30.49,30.39,5,0,5,0.00
2013-4-18,59.0,52.1,45.7,47.8,43.6,39.7,85,73,61,30.48,30.31,4,0,4,0.03
2013-4-19,56.2,52.0,49.5,51.8,48.6,46.6,92,88,82,30.32,30.15,9,1,9,0.35
2013-4-20,59.4,52.4,48.6,47.6,45.1,42.5,89,77,58,30.35,30.25,6,1,6,0.00
2013-4-21,53.1,49.6,45.0,47.7,44.2,41.4,88,82,74,30.32,30.25,6,0,6,0.02
2013-4-22,65.2,51.2,39.6,46.5,39.6,36.0,91,68,36,30.43,30.32,6,1,6,0.00
2013-4-23,67.9,52.3,38.7,43.2,37.0,32.1,79,59,33,30.39,30.14,5,0,5,0.00
2013-4-24,74.7,56.7,40.9,45.2,39.6,33.8,81,56,31,30.27,30.01,5,0,5,0.00
2013-4-25,74.9,58.7,45.4,50.0,43.3,37.4,78,59,36,30.16,30.02,5,0,5,0.00
2013-4-26,76.7,59.8,45.4,53.6,46.1,40.2,87,64,31,30.25,30.15,4,0,4,0.00
2013-4-27,71.8,58.3,47.0,46.9,42.6,37.3,76,58,33,30.26,30.19,7,1,7,0.00
2013-4-28,66.2,57.8,51.5,50.1,45.8,38.4,84,66,38,30.27,30.09,10,1,10,0.01
2013-4-29,59.0,52.3,43.0,47.8,41.2,33.2,86,67,41,30.23,30.06,6,1,6,0.12
2013-4-30,56.5,47.4,41.0,40.3,36.3,32.9,77,66,49,30.44,30.23,6,1,6,0.00
2013-5-1,69.5,52.0,36.7,46.9,38.9,31.0,84,63,38,30.52,30.43,4,0,4,0.00
2013-5-2,79.6,61.9,47.2,47.8,41.1,34.7,66,48,31,30.46,30.24,4,1,4,0.00
2013-5-3,78.5,61.4,46.3,51.8,43.8,36.5,74,54,33,30.30,30.13,5,0,5,0.00
2013-5-4,82.3,64.9,49.5,51.0,44.5,39.0,77,51,25,30.14,29.91,8,1,8,0.00
2013-5-5,84.8,67.7,52.9,50.0,44.9,39.6,65,46,25,29.91,29.71,7,1,7,0.00
2013-5-6,80.5,66.1,54.4,55.7,50.1,43.7,73,57,38,29.88,29.74,5,1,5,0.00
2013-5-7,74.7,62.5,50.8,56.3,50.4,44.0,83,66,46,30.03,29.88,6,1,6,0.00
2013-5-8,67.5,58.2,51.7,55.1,50.2,45.5,82,75,61,30.16,30.03,5,0,5,0.00
2013-5-9,76.0,61.6,50.8,58.2,52.5,46.6,87,74,48,30.20,30.07,4,0,4,0.00
2013-5-10,82.6,66.4,52.6,62.9,55.1,47.9,87,69,38,30.20,30.09,4,0,4,0.00
2013-5-11,83.3,68.9,57.2,62.9,56.9,51.7,82,67,42,30.19,29.99,5,0,5,0.00
2013-5-12,70.0,63.3,58.3,61.4,57.4,54.7,90,81,69,30.13,30.06,3,0,3,0.12
2013-5-13,67.7,59.4,50.4,58.5,51.9,42.8,91,77,55,30.23,30.04,12,1,12,0.03
2013-5-14,66.1,55.4,45.4,47.0,43.7,40.5,86,67,41,30.24,30.10,5,0,5,0.00
2013-5-15,59.4,54.0,49.5,51.8,47.5,41.9,85,79,71,30.12,30.03,4,0,4,0.04
2013-5-16,64.4,56.8,52.9,56.9,52.4,49.6,89,86,72,30.03,29.93,5,0,5,0.09
2013-5-17,62.1,55.1,50.2,51.7,49.1,46.5,91,81,62,30.10,29.99,5,1,5,0.13
2013-5-18,57.2,53.6,50.4,52.5,50.2,47.3,92,88,81,30.28,30.10,4,0,4,0.19
2013-5-19,62.6,55.7,49.9,54.5,51.3,45.8,93,85,71,30.41,30.28,3,0,3,0.00
2013-5-20,70.7,57.2,45.9,55.2,48.9,42.6,90,75,51,30.35,29.91,4,0,4,0.00
2013-5-21,58.3,49.8,43.9,50.2,45.3,40.6,90,84,69,29.98,29.82,7,1,9,0.55
2013-5-22,48.4,45.4,42.7,45.8,42.7,39.3,92,90,87,29.98,29.94,8,1,8,0.89
2013-5-23,55.1,48.9,45.4,49.8,46.0,43.1,93,90,78,30.02,29.96,7,1,7,1.09
2013-5-24,60.1,51.8,47.2,51.7,47.9,45.0,94,87,71,30.09,29.98,8,1,8,0.56
2013-5-25,67.0,56.7,49.7,54.1,49.8,46.9,92,79,51,30.08,29.93,5,1,5,0.00
2013-5-26,63.7,57.8,53.8,54.0,51.2,48.2,91,79,65,30.04,29.93,8,1,8,0.10
2013-5-27,63.4,55.4,51.5,58.8,52.0,46.8,91,88,81,30.00,29.75,5,0,5,0.66
2013-5-28,63.5,56.7,51.8,53.2,50.3,47.5,92,80,60,29.95,29.78,10,1,10,0.08
2013-5-29,62.5,55.7,50.9,53.8,49.7,45.8,93,81,61,30.07,29.65,9,2,9,0.36
2013-5-30,61.7,54.8,49.3,51.8,48.3,45.3,88,79,64,30.25,30.06,7,1,7,0.03
2013-5-31,68.4,58.1,49.3,52.9,49.5,45.7,90,75,49,30.33,30.23,4,0,4,0.00
2013-6-1,74.0,61.1,49.7,59.5,52.3,45.4,87,74,51,30.24,30.02,4,0,4,0.01
2013-6-2,72.4,62.2,54.9,56.4,52.4,49.1,83,71,50,30.09,30.03,4,0,4,0.00
2013-6-3,74.0,61.0,51.8,56.7,51.4,46.4,82,72,51,30.12,30.03,5,0,5,0.00
2013-6-4,82.1,64.6,49.0,61.3,53.6,44.0,88,70,44,30.09,29.96,4,0,4,0.00
2013-6-5,82.6,68.4,55.6,61.5,56.1,50.1,85,67,42,30.08,29.97,4,0,4,0.00
2013-6-6,81.7,67.6,55.1,62.5,55.5,48.6,85,67,45,30.06,29.98,4,0,4,0.00
2013-6-7,79.6,64.2,52.4,59.1,50.4,44.0,78,62,37,30.16,30.06,4,0,4,0.00
2013-6-8,77.2,63.2,50.4,56.1,50.2,45.1,84,65,37,30.19,30.05,4,0,4,0.00
2013-6-9,72.9,61.7,52.2,54.1,49.0,44.3,78,64,45,30.12,29.98,5,0,5,0.00
2013-6-10,69.3,57.8,46.8,51.8,46.3,40.5,82,66,50,30.04,29.90,5,0,5,0.01
2013-6-11,64.4,57.5,52.7,51.1,46.8,43.6,76,68,53,30.14,29.99,7,1,7,0.00
2013-6-12,62.8,56.9,53.1,52.7,49.1,46.4,84,75,64,30.19,30.13,5,0,5,0.00
2013-6-13,61.9,55.9,51.1,55.7,51.3,47.8,91,85,74,30.29,30.17,8,1,8,0.00
2013-6-14,68.8,59.1,52.6,56.1,52.0,49.0,89,78,60,30.29,29.99,4,0,4,0.00
2013-6-15,78.8,63.5,50.2,60.9,54.0,46.5,91,73,44,30.01,29.90,5,0,5,0.00
2013-6-16,74.2,63.3,52.9,60.8,54.9,48.3,86,75,56,30.10,30.01,5,0,5,0.00
2013-6-17,76.3,65.2,54.7,57.9,53.0,49.7,85,67,44,30.10,29.93,8,1,8,0.00
2013-6-18,70.0,61.9,56.5,52.9,50.3,46.7,84,67,46,30.01,29.93,9,1,9,0.00
2013-6-19,64.8,58.1,52.4,55.4,51.1,48.2,88,78,61,30.09,29.96,8,1,8,0.00
2013-6-20,67.7,58.5,52.9,57.1,52.1,49.3,88,80,60,30.14,30.05,6,1,6,0.00
2013-6-21,70.2,60.2,53.3,58.0,53.6,50.1,90,79,58,30.18,30.12,4,0,4,0.00
2013-6-22,78.5,63.9,50.9,59.9,53.5,47.4,90,71,42,30.13,29.85,5,0,5,0.00
2013-6-23,69.1,64.3,59.8,64.1,58.9,53.8,90,82,70,29.85,29.65,3,0,3,0.00
2013-6-24,67.7,61.2,56.3,59.0,55.2,53.0,91,81,65,29.73,29.64,8,1,8,0.00
2013-6-25,67.1,61.1,57.2,61.9,57.2,53.6,92,87,75,29.88,29.69,6,0,6,0.00
2013-6-26,73.1,64.0,58.7,64.1,59.2,55.4,93,85,68,30.06,29.87,4,0,4,0.00
2013-6-27,79.6,69.0,60.8,67.8,62.0,57.5,90,79,60,30.17,30.01,4,0,4,0.00
2013-6-28,88.9,73.2,60.5,71.1,64.2,57.6,92,76,48,30.16,30.01,6,0,6,0.00
2013-6-29,86.4,73.1,61.6,68.6,62.2,56.3,85,70,46,30.11,29.96,4,0,4,0.00
2013-6-30,93.6,76.2,62.1,74.2,65.7,57.7,89,72,46,29.99,29.82,5,0,5,0.00
2013-7-1,90.0,76.0,65.0,73.8,65.9,60.2,86,72,52,30.01,29.90,5,0,5,0.00
2013-7-2,86.6,73.6,62.6,67.6,61.8,57.3,83,68,43,30.08,30.01,4,0,4,0.00
2013-7-3,83.0,68.5,57.4,57.8,53.9,50.1,81,62,34,30.15,30.01,5,0,5,0.00
2013-7-4,74.9,63.8,53.6,57.3,52.3,47.3,83,67,51,30.16,30.03,5,0,5,0.00
2013-7-5,72.9,62.8,55.4,58.9,53.5,48.3,80,72,59,30.07,29.94,4,0,4,0.00
2013-7-6,75.4,63.6,54.7,61.4,54.9,49.1,83,74,57,29.98,29.85,5,0,5,0.00
2013-7-7,77.4,65.1,56.0,62.9,56.8,51.1,87,75,58,29.98,29.88,4,0,4,0.00
2013-7-8,80.3,66.6,54.9,62.8,56.2,49.8,85,70,50,30.09,29.98,5,0,5,0.00
2013-7-9,86.6,71.3,58.5,65.2,59.9,54.4,89,69,45,30.08,29.97,5,0,5,0.00
2013-7-10,79.9,67.1,55.8,60.9,54.7,46.5,83,66,47,30.08,29.93,4,0,4,0.00
2013-7-11,74.9,62.8,51.1,54.5,49.3,44.6,82,63,44,30.10,29.96,5,0,5,0.00
2013-7-12,73.3,61.9,50.6,55.9,50.0,44.0,82,66,51,30.11,30.00,5,0,5,0.00
2013-7-13,79.6,64.4,50.2,57.0,50.7,44.3,83,63,41,30.17,30.02,4,0,4,0.00
2013-7-14,85.0,68.4,54.4,59.0,52.7,48.3,83,60,30,30.09,29.95,4,0,4,0.00
2013-7-15,84.6,68.0,53.8,59.3,52.4,45.2,81,59,40,30.02,29.80,4,0,4,0.00
2013-7-16,88.6,72.0,58.5,65.6,56.9,49.2,76,60,43,29.98,29.77,8,1,8,0.00
2013-7-17,77.0,66.7,60.8,59.2,55.8,53.1,78,69,52,30.18,29.98,5,1,5,0.00
2013-7-18,80.3,67.1,55.1,60.9,55.6,49.8,86,68,41,30.21,30.06,5,0,5,0.00
2013-7-19,80.5,66.9,56.2,64.8,57.4,50.4,84,72,56,30.15,30.00,4,0,4,0.00
2013-7-20,77.9,65.2,58.3,64.9,57.0,52.0,85,75,61,30.09,29.94,4,0,4,0.00
2013-7-21,79.9,66.0,58.1,64.7,56.9,51.7,83,73,57,30.00,29.89,4,0,4,0.00
2013-7-22,80.8,67.5,58.3,60.9,56.9,53.2,84,70,44,30.06,29.94,5,0,5,0.00
2013-7-23,86.6,70.0,57.4,66.5,59.9,52.6,87,72,49,30.05,29.93,5,0,5,0.00
2013-7-24,87.5,71.3,57.2,63.9,58.2,52.1,85,66,35,30.04,29.96,4,0,4,0.00
2013-7-25,87.3,71.1,56.3,61.7,56.1,50.2,83,62,32,30.09,30.01,4,0,4,0.00
2013-7-26,87.7,70.2,56.0,60.5,53.4,48.4,82,58,32,30.16,30.05,4,0,4,0.00
2013-7-27,78.8,65.1,52.9,56.9,51.2,45.7,82,62,44,30.20,30.00,4,0,4,0.00
2013-7-28,73.3,61.8,51.8,57.1,51.1,45.5,82,69,55,30.07,29.97,5,0,5,0.00
2013-7-29,75.4,65.0,56.3,59.6,54.2,48.8,80,69,51,30.02,29.93,4,0,4,0.00
2013-7-30,79.4,66.4,54.5,62.2,56.0,49.4,85,71,49,30.14,30.02,4,0,4,0.00
2013-7-31,76.0,65.9,59.6,63.4,57.8,53.8,84,76,58,30.11,30.00,3,0,3,0.00
2013-8-1,65.0,61.4,58.1,57.6,55.2,52.9,87,80,74,30.11,30.05,6,0,6,0.00
2013-8-2,70.6,63.9,58.3,58.2,55.6,53.2,84,75,62,30.15,30.09,3,0,3,0.00
2013-8-3,79.4,67.3,59.4,62.8,58.4,53.8,86,74,56,30.11,29.98,4,0,4,0.00
2013-8-4,86.0,70.7,58.3,66.9,60.3,54.2,89,71,48,30.03,29.88,4,0,4,0.00
2013-8-5,86.4,71.7,59.6,66.3,60.5,54.9,87,69,45,30.01,29.89,5,0,5,0.00
2013-8-6,88.4,71.0,56.5,63.5,56.2,50.4,82,62,35,30.00,29.88,3,0,3,0.00
2013-8-7,83.7,70.6,58.3,61.4,56.5,52.2,83,63,41,30.03,29.94,4,1,4,0.00
2013-8-8,81.0,68.3,59.8,64.3,58.0,52.9,80,70,56,30.05,29.90,3,0,3,0.00
2013-8-9,77.6,67.1,58.7,62.9,57.9,52.2,84,73,57,29.95,29.85,4,0,4,0.00
2013-8-10,80.6,67.8,59.4,65.5,61.1,55.5,89,80,56,30.03,29.90,5,0,5,0.00
2013-8-11,75.2,65.3,58.7,62.9,58.6,54.9,89,80,65,30.08,29.98,2,0,2,0.00
2013-8-12,77.2,66.0,58.1,62.5,57.5,53.8,87,75,55,30.07,30.00,4,0,4,0.00
2013-8-13,82.1,66.6,54.2,61.4,54.9,49.6,87,68,40,30.11,29.92,5,0,5,0.00
2013-8-14,82.4,69.2,58.9,60.9,55.9,48.1,81,64,31,29.97,29.91,5,0,5,0.00
2013-8-15,79.4,70.8,63.9,67.1,62.0,57.2,85,74,61,29.98,29.94,4,0,4,0.00
2013-8-16,80.6,70.3,64.3,69.1,63.4,60.2,89,79,60,30.04,29.96,3,0,3,0.00
2013-8-17,81.2,68.7,58.0,62.8,58.3,53.3,86,71,49,30.09,30.01,6,0,6,0.00
2013-8-18,80.8,69.6,62.3,61.5,58.2,55.6,81,68,50,30.14,30.03,4,0,4,0.00
2013-8-19,82.4,68.4,57.8,61.0,56.7,53.1,87,68,45,30.12,30.04,4,0,4,0.00
2013-8-20,79.9,66.1,53.6,60.2,53.7,48.0,84,66,43,30.13,29.98,5,0,5,0.00
2013-8-21,85.9,68.7,54.7,62.8,55.1,48.0,81,63,44,30.01,29.84,4,0,4,0.00
2013-8-22,81.4,68.3,58.5,62.1,56.8,50.4,82,67,47,29.91,29.83,4,0,4,0.00
2013-8-23,73.6,65.6,60.8,61.5,58.0,55.4,87,77,59,29.95,29.87,4,0,4,0.00
2013-8-24,75.4,65.7,60.8,62.6,57.6,51.9,99,76,44,29.92,29.84,4,0,4,0.00
2013-8-25,69.3,61.9,56.2,68.5,60.5,53.3,99,95,76,29.94,29.89,2,0,2,0.00
2013-8-26,78.5,70.2,61.9,65.7,57.5,51.8,99,66,42,29.98,29.89,9,1,9,0.00
2013-8-27,81.7,69.6,60.7,65.1,60.8,56.8,87,75,52,29.97,29.79,5,0,5,0.00
2013-8-28,81.2,70.6,62.3,66.1,62.3,58.7,91,76,56,29.91,29.84,5,0,5,0.00
2013-8-29,77.2,69.8,65.5,68.8,64.4,62.5,93,83,65,30.07,29.84,10,1,10,0.00
2013-8-30,78.8,69.8,63.4,65.3,62.2,57.4,91,78,57,30.15,30.03,4,0,4,0.00
2013-8-31,85.9,69.7,58.5,67.3,60.4,55.3,91,74,49,30.05,29.81,4,0,4,0.00
2013-9-1,81.2,69.3,58.9,61.9,57.9,53.7,85,69,45,29.91,29.79,6,1,6,0.00
2013-9-2,79.0,70.1,62.3,63.5,58.6,56.0,82,68,49,29.92,29.87,7,1,7,0.00
2013-9-3,76.3,67.0,61.2,67.2,61.2,57.5,90,82,64,30.00,29.92,4,0,4,0.00
2013-9-4,72.9,66.2,60.5,64.4,60.6,57.0,90,82,72,30.05,29.98,2,0,2,0.00
2013-9-5,65.7,63.3,58.5,62.2,59.9,56.1,92,89,85,30.04,29.96,12,0,12,0.00
2013-9-6,68.4,62.5,58.5,63.2,59.5,56.2,94,90,76,30.13,30.02,10,1,10,0.00
2013-9-7,76.9,64.4,55.1,67.8,59.8,52.7,94,86,69,30.11,29.95,4,0,4,0.00
2013-9-8,80.8,67.6,58.5,68.0,61.7,55.7,93,82,61,30.07,29.98,4,0,4,0.00
2013-9-9,79.2,67.9,61.0,67.6,62.3,58.1,91,83,65,30.04,29.92,4,0,4,0.00
2013-9-10,86.8,71.2,61.7,73.7,63.8,58.6,91,78,63,29.93,29.78,3,0,3,0.00
2013-9-11,92.5,75.1,64.1,72.8,64.5,58.2,85,71,52,29.93,29.82,4,0,4,0.00
2013-9-12,81.4,69.7,59.9,67.9,61.8,55.4,87,77,60,30.01,29.89,5,0,5,0.00
2013-9-13,73.4,65.5,61.0,65.1,60.4,57.5,89,84,74,29.97,29.84,4,0,4,0.00
2013-9-14,76.9,67.5,62.3,66.9,62.2,58.7,90,84,69,29.86,29.70,4,0,4,0.00
2013-9-15,67.1,63.8,61.0,61.8,60.2,58.2,92,88,81,29.89,29.71,4,0,4,0.00
2013-9-16,69.5,62.8,59.9,60.5,58.1,56.1,92,85,70,29.98,29.89,5,1,5,0.00
2013-9-17,67.7,60.0,55.1,58.8,55.2,51.8,92,84,66,30.01,29.87,4,0,4,0.00
2013-9-18,70.6,59.9,53.6,58.4,53.7,48.8,89,80,61,30.09,30.00,5,1,6,0.00
2013-9-19,78.3,61.1,49.3,60.9,52.5,45.7,91,75,50,30.01,29.78,4,0,4,0.00
2013-9-20,72.4,61.4,52.6,59.1,53.5,48.2,88,76,60,29.78,29.65,9,1,9,0.00
2013-9-21,65.2,60.1,56.5,60.2,56.1,53.0,91,87,77,29.78,29.68,4,0,4,0.00
2013-9-22,74.3,57.1,54.3,59.5,50.5,0.0,99,93,61,40.00,29.29,6,1,14,2.00
2013-9-23,63.5,56.4,53.0,57.5,54.9,53.0,99,94,76,40.60,29.57,6,1,11,0.00
2013-9-24,59.7,53.4,51.9,55.2,52.9,51.0,98,96,80,29.60,29.53,4,0,7,0.06
2013-9-28,59.5,59.5,59.5,57.7,57.7,57.7,93,93,93,29.32,29.32,2,2,3,0.00